createdAt,value
2018-04-13T00:09:00.061Z,58.8
2018-04-13T00:25:48.944Z,58.8
2018-04-13T00:42:36.477Z,58.8
2018-04-13T00:59:24.817Z,58.8
2018-04-13T01:16:12.975Z,58.4
2018-04-13T01:33:00.661Z,58.4
2018-04-13T01:49:49.011Z,58.4
2018-04-13T02:06:36.294Z,58.4
2018-04-13T02:23:23.714Z,58.4
2018-04-13T02:40:11.665Z,58.4
2018-04-13T02:56:59.632Z,58.4
2018-04-13T03:13:47.194Z,58.4
2018-04-13T03:30:34.349Z,58.4
2018-04-13T03:47:21.962Z,58.0
2018-04-13T04:04:09.131Z,58.0
2018-04-13T04:20:56.793Z,58.0
2018-04-13T04:37:43.731Z,58.0
2018-04-13T04:54:31.756Z,58.0
2018-04-13T05:11:19.376Z,57.6
2018-04-13T05:28:06.203Z,57.6
2018-04-13T05:44:53.497Z,57.6
2018-04-13T06:01:41.791Z,57.6
2018-04-13T06:18:28.894Z,57.2
2018-04-13T06:35:16.785Z,57.2
2018-04-13T06:52:05.135Z,57.2
2018-04-13T07:08:52.241Z,57.2
2018-04-13T07:25:39.673Z,56.8
2018-04-13T07:42:27.349Z,56.8
2018-04-13T07:59:15.483Z,56.8
2018-04-13T08:16:03.444Z,57.2
2018-04-13T08:32:52.063Z,57.2
2018-04-13T08:49:40.044Z,57.2
2018-04-13T09:06:28.805Z,56.8
2018-04-13T09:23:19.782Z,56.8
2018-04-13T09:40:04.680Z,56.8
2018-04-13T09:56:55.325Z,56.8
2018-04-13T10:13:42.685Z,56.8
2018-04-13T10:30:30.419Z,56.4
2018-04-13T10:47:22.196Z,56.4
2018-04-13T11:04:08.683Z,56.4
2018-04-13T11:20:57.541Z,56.4
2018-04-13T11:37:46.512Z,56.0
2018-04-13T11:54:35.655Z,56.0
2018-04-13T12:11:24.821Z,56.0
2018-04-13T12:28:14.322Z,56.8
2018-04-13T12:45:03.781Z,57.2
2018-04-13T13:01:52.184Z,58.0
2018-04-13T13:18:45.170Z,58.4
2018-04-13T13:35:30.744Z,58.4
2018-04-13T13:52:18.988Z,58.4
2018-04-13T14:09:07.242Z,58.4
2018-04-13T14:25:56.080Z,58.4
2018-04-13T14:42:45.989Z,58.4
2018-04-13T14:59:34.405Z,58.4
2018-04-13T15:16:23.134Z,58.4
2018-04-13T15:33:11.977Z,59.2
2018-04-13T15:50:01.429Z,60.8
2018-04-13T16:06:50.385Z,62.8
2018-04-13T16:23:39.104Z,64.0
2018-04-13T16:40:28.896Z,65.6
2018-04-13T16:57:17.033Z,66.4
2018-04-13T17:14:07.247Z,65.2
2018-04-13T17:30:53.669Z,64.8
2018-04-13T17:47:41.565Z,64.8
2018-04-13T18:04:30.133Z,65.2
2018-04-13T18:21:18.783Z,65.2
2018-04-13T18:38:07.024Z,65.2
2018-04-13T18:54:55.691Z,65.2
2018-04-13T19:11:43.870Z,65.6
2018-04-13T19:28:32.134Z,65.6
2018-04-13T19:45:19.553Z,65.6
2018-04-13T20:02:07.221Z,66.0
2018-04-13T20:18:54.934Z,66.0
2018-04-13T20:35:42.803Z,66.0
2018-04-13T20:52:30.572Z,66.0
2018-04-13T21:09:18.089Z,66.0
2018-04-13T21:26:05.648Z,66.0
2018-04-13T21:42:53.513Z,66.0
2018-04-13T21:59:41.997Z,65.2
2018-04-13T22:16:28.925Z,65.2
2018-04-13T22:33:16.559Z,65.2
2018-04-13T22:50:03.975Z,65.2
2018-04-13T23:06:50.939Z,65.2
2018-04-13T23:23:38.497Z,65.2
2018-04-13T23:40:26.643Z,64.8
2018-04-13T23:57:13.810Z,64.8
